Latest Weather Observations for Lancelin (Defence)

IDW60801

Issued at 11:43 pm WST Monday 9 December 2019 (issued every 10 minutes, with the page automatically refreshed every 10 minutes)

About weather observations | Map of weather stations | Latest weather observations for WA | Other Formats
Station Details ID: 009280 Name: LANCELIN (DEFENCE) Lat: -30.84 Lon: 115.23 Height: 7.0 m
Data from the previous 72 hours. | See also: Recent months at Lancelin (Defence)
Date/Time
WST
Temp
°C
App
Temp
°C
Dew
Point
°C
Rel
Hum
%
Delta-T
°C
Wind Press
QNH
hPa
Press
MSL
hPa
Rain since
9am
mm
Dir  Spd
km/h
Gust
km/h
Spd
kts
Gust
kts
09/11:30pm 20.1 17.2 17.1 83 1.8 SSE 28 41 15 22 1019.2 1019.1 0.0
09/11:00pm 20.1 16.3 16.7 81 2.1 SSE 32 43 17 23 1019.5 1019.4 0.0
09/10:30pm 20.2 16.4 16.6 80 2.2 SSE 32 43 17 23 1019.8 1019.7 0.0
09/10:00pm 20.4 17.3 16.6 79 2.3 SSE 28 41 15 22 1020.0 1019.9 0.0
09/09:30pm 20.5 16.2 15.5 73 3.0 SSE 32 43 17 23 1020.1 1020.0 0.0
09/09:00pm 20.7 16.4 15.5 72 3.1 SSE 32 44 17 24 1019.9 1019.8 0.0
09/08:30pm 20.7 16.5 15.7 73 3.0 SSE 32 43 17 23 1019.8 1019.7 0.0
09/08:00pm 20.9 16.7 15.7 72 3.1 SSE 32 46 17 25 1019.7 1019.6 0.0
09/07:30pm 21.0 17.1 15.5 71 3.3 SSE 30 43 16 23 1019.3 1019.2 0.0
09/07:00pm 21.2 17.7 15.5 70 3.4 SSE 28 43 15 23 1019.1 1019.0 0.0
09/06:47pm 21.4 18.1 16.1 72 3.2 SSE 28 48 15 26 1019.0 1018.9 0.0
09/06:30pm 21.7 18.6 16.6 73 3.1 SSE 28 43 15 23 1018.9 1018.8 0.0
09/06:00pm 22.4 20.2 16.9 71 3.4 SSE 24 35 13 19 1018.6 1018.5 0.0
09/05:30pm 23.0 21.1 16.8 68 3.8 SSE 22 32 12 17 1018.1 1018.0 0.0
09/05:00pm 23.1 20.4 16.6 67 4.0 S 26 35 14 19 1018.0 1017.9 0.0
09/04:30pm 23.2 20.7 17.0 68 3.8 S 26 37 14 20 1018.1 1018.0 0.0
09/04:00pm 23.4 20.8 16.0 63 4.5 S 24 39 13 21 1018.1 1018.0 0.0
09/03:30pm 23.9 21.8 16.2 62 4.7 S 22 33 12 18 1018.2 1018.1 0.0
09/03:00pm 24.0 21.9 16.3 62 4.7 S 22 33 12 18 1018.3 1018.2 0.0
09/02:30pm 24.7 22.3 16.4 60 5.1 S 24 33 13 18 1018.6 1018.5 0.0
09/02:00pm 24.4 22.5 16.6 61 4.8 S 22 35 12 19 1018.9 1018.8 0.0
09/01:30pm 23.8 20.8 15.8 61 4.8 S 26 33 14 18 1019.3 1019.2 0.0
09/01:00pm 23.6 20.9 15.6 61 4.8 S 24 33 13 18 1019.7 1019.6 0.0
09/12:30pm 23.0 19.4 15.3 62 4.6 S 28 37 15 20 1019.9 1019.8 0.0
09/12:00pm 23.7 20.0 14.9 57 5.2 S 28 35 15 19 1020.0 1019.9 0.0
09/11:30am 23.2 19.9 15.0 60 4.9 S 26 35 14 19 1020.4 1020.3 0.0
09/11:00am 22.8 19.3 14.4 59 4.9 S 26 37 14 20 1020.7 1020.6 0.0
09/10:30am 23.4 21.3 15.2 60 4.9 S 20 33 11 18 1020.7 1020.6 0.0
09/10:00am 22.6 20.1 14.2 59 4.9 S 20 26 11 14 1020.8 1020.7 0.0
09/09:30am 22.9 21.1 14.5 59 5.0 S 17 24 9 13 1020.8 1020.7 0.0
09/09:00am 25.1 22.1 9.4 37 8.5 SE 15 22 8 12 1020.8 1020.7 0.0
09/08:30am 23.5 21.3 10.9 45 7.0 SE 13 20 7 11 1021.1 1021.0 0.0
09/08:00am 21.4 18.9 10.9 51 5.8 ESE 15 22 8 12 1021.0 1020.9 0.0
09/07:30am 20.1 18.2 11.8 59 4.6 ESE 13 19 7 10 1020.9 1020.8 0.0
09/07:00am 18.5 18.0 12.7 69 3.2 SE 7 15 4 8 1020.7 1020.6 0.0
09/06:30am 16.8 16.0 12.9 78 2.2 SE 9 13 5 7 1020.4 1020.3 0.0
09/06:00am 15.7 15.5 13.5 87 1.2 SE 7 9 4 5 1020.3 1020.2 0.0
09/05:30am 15.4 14.3 13.2 87 1.2 ESE 11 13 6 7 1019.8 1019.7 0.0
09/05:00am 15.9 15.1 13.9 88 1.1 ESE 11 15 6 8 1019.6 1019.5 0.0
09/04:30am 16.1 15.6 13.9 87 1.2 ESE 9 13 5 7 1019.5 1019.4 0.0
09/04:00am 16.6 16.1 13.9 84 1.5 ESE 9 13 5 7 1019.2 1019.1 0.0
09/03:30am 19.2 16.8 15.3 78 2.3 SSE 22 33 12 18 1019.0 1018.9 0.0
09/03:00am 19.4 16.7 15.5 78 2.3 SSE 24 33 13 18 1019.0 1018.9 0.0
09/02:30am 19.4 16.6 15.3 77 2.4 SSE 24 35 13 19 1019.2 1019.1 0.0
09/02:00am 19.4 16.7 15.7 79 2.2 SSE 24 37 13 20 1019.3 1019.2 0.0
09/01:30am 19.4 17.0 15.5 78 2.3 SSE 22 33 12 18 1019.6 1019.5 0.0
09/01:00am 19.4 16.8 14.9 75 2.6 SSE 22 32 12 17 1019.8 1019.7 0.0
09/12:30am 19.4 16.4 14.9 75 2.6 SSE 24 33 13 18 1020.1 1020.0 0.0
09/12:00am 19.3 16.8 15.2 77 2.4 SSE 22 30 12 16 1020.3 1020.2 0.0
 
Date/Time
WST
Temp
°C
App
Temp
°C
Dew
Point
°C
Rel
Hum
%
Delta-T
°C
Wind Press
QNH
hPa
Press
MSL
hPa
Rain since
9am
mm
Dir  Spd
km/h
Gust
km/h
Spd
kts
Gust
kts
08/11:30pm 19.3 16.4 15.2 77 2.4 SSE 24 35 13 19 1020.4 1020.3 0.0
08/11:00pm 19.4 16.1 15.1 76 2.5 SSE 26 33 14 18 1020.5 1020.4 0.0
08/10:30pm 19.6 16.7 15.0 75 2.7 S 24 37 13 20 1020.8 1020.7 0.0
08/10:00pm 19.4 16.3 14.4 73 2.9 SSE 24 37 13 20 1020.8 1020.7 0.0
08/09:30pm 19.4 16.5 14.0 71 3.1 S 22 33 12 18 1020.8 1020.7 0.0
08/09:00pm 19.5 17.1 14.3 72 3.0 S 20 32 11 17 1020.6 1020.5 0.0
08/08:30pm 19.3 16.7 13.7 70 3.2 S 20 32 11 17 1020.4 1020.3 0.0
08/08:00pm 19.3 16.4 13.9 71 3.1 S 22 32 12 17 1020.4 1020.3 0.0
08/07:30pm 19.2 15.9 12.9 67 3.6 S 22 35 12 19 1020.2 1020.1 0.0
08/07:00pm 19.4 16.5 12.9 66 3.7 S 20 32 11 17 1020.2 1020.1 0.0
08/06:30pm 20.0 16.9 13.5 66 3.7 S 22 35 12 19 1019.9 1019.8 0.0
08/06:00pm 20.3 16.9 13.7 66 3.8 S 24 33 13 18 1019.5 1019.4 0.0
08/05:30pm 20.9 17.3 13.1 61 4.4 S 24 35 13 19 1019.3 1019.2 0.0
08/05:00pm 21.4 17.8 13.1 59 4.7 S 24 35 13 19 1019.3 1019.2 0.0
08/04:30pm 21.4 17.1 12.0 55 5.3 S 26 39 14 21 1019.3 1019.2 0.0
08/04:00pm 21.9 16.9 12.2 54 5.5 S 30 43 16 23 1019.4 1019.3 0.0
08/03:30pm 22.1 17.8 13.2 57 5.1 S 28 37 15 20 1019.4 1019.3 0.0
08/03:00pm 22.0 17.3 12.0 53 5.6 S 28 39 15 21 1019.4 1019.3 0.0
08/02:30pm 22.0 17.3 12.0 53 5.6 S 28 37 15 20 1019.4 1019.3 0.0
08/02:00pm 22.7 18.7 12.9 54 5.6 S 26 37 14 20 1019.3 1019.2 0.0
08/01:30pm 22.3 18.0 12.0 52 5.8 S 26 41 14 22 1019.2 1019.1 0.0
08/01:00pm 22.0 17.7 13.1 57 5.1 S 28 37 15 20 1019.2 1019.1 0.0
08/12:30pm 22.4 19.1 14.0 59 4.9 S 24 35 13 19 1019.3 1019.2 0.0
08/12:00pm 22.6 19.5 13.4 56 5.3 S 22 32 12 17 1019.4 1019.3 0.0
08/11:30am 22.9 20.0 13.9 57 5.3 S 22 32 12 17 1019.4 1019.3 0.0
08/11:00am 22.3 19.4 13.9 59 4.9 S 22 33 12 18 1019.7 1019.6 0.0
08/10:30am 22.9 20.4 14.2 58 5.1 S 20 32 11 17 1019.4 1019.3 0.0
08/10:00am 22.1 18.9 13.2 57 5.1 S 22 30 12 16 1019.5 1019.4 0.0
08/09:30am 22.3 19.0 13.9 59 4.9 S 24 32 13 17 1019.3 1019.2 0.0
08/09:00am 22.0 19.4 13.9 60 4.7 S 20 33 11 18 1019.0 1018.9 0.0
08/08:30am 21.1 18.4 13.5 62 4.4 SSE 20 28 11 15 1018.9 1018.8 0.0
08/08:00am 21.9 19.3 15.0 65 4.1 SSE 22 30 12 16 1018.5 1018.4 0.0
08/07:30am 20.0 17.7 14.1 69 3.4 SSE 19 28 10 15 1018.2 1018.1 0.0
08/07:00am 20.2 17.6 14.8 71 3.2 S 22 30 12 16 1017.8 1017.7 0.0
08/06:30am 20.0 18.0 15.0 73 2.9 S 19 28 10 15 1017.5 1017.4 0.0
08/06:00am 19.7 17.5 14.9 74 2.8 S 20 30 11 16 1017.0 1016.9 0.0
08/05:30am 19.5 16.8 14.7 74 2.8 S 22 30 12 16 1016.3 1016.2 0.0
08/05:00am 19.4 17.1 14.6 74 2.8 S 20 28 11 15 1015.9 1015.8 0.0
08/04:30am 19.5 17.6 15.2 76 2.5 S 19 28 10 15 1015.7 1015.6 0.0
08/04:00am 19.4 17.3 15.1 76 2.5 S 20 28 11 15 1015.5 1015.4 0.0
08/03:30am 19.3 16.7 14.8 75 2.6 S 22 32 12 17 1015.3 1015.2 0.0
08/03:00am 19.3 16.2 14.6 74 2.7 S 24 37 13 20 1015.3 1015.2 0.0
08/02:30am 19.3 16.8 15.2 77 2.4 S 22 30 12 16 1015.2 1015.1 0.0
08/02:00am 19.7 17.7 15.6 77 2.4 S 20 28 11 15 1015.3 1015.2 0.0
08/01:30am 19.5 16.8 14.7 74 2.8 SSW 22 30 12 16 1015.5 1015.4 0.0
08/01:00am 19.8 17.2 14.8 73 2.9 SSW 22 30 12 16 1015.6 1015.5 0.0
08/12:30am 19.9 17.5 14.5 71 3.1 SSW 20 28 11 15 1015.8 1015.7 0.0
08/12:00am 19.9 17.7 14.5 71 3.1 SSW 19 24 10 13 1016.1 1016.0 0.0
 
Date/Time
WST
Temp
°C
App
Temp
°C
Dew
Point
°C
Rel
Hum
%
Delta-T
°C
Wind Press
QNH
hPa
Press
MSL
hPa
Rain since
9am
mm
Dir  Spd
km/h
Gust
km/h
Spd
kts
Gust
kts
07/11:30pm 19.9 18.6 14.7 72 3.0 SSW 15 22 8 12 1016.1 1016.0 0.0
07/11:00pm 20.0 18.1 14.1 69 3.4 SSW 17 22 9 12 1016.2 1016.1 0.0
07/10:30pm 19.9 17.4 13.4 66 3.7 SSW 19 28 10 15 1016.2 1016.1 0.0
07/10:00pm 20.1 17.8 14.0 68 3.5 SW 19 26 10 14 1016.2 1016.1 0.0
07/09:30pm 20.2 17.5 12.9 63 4.1 SW 19 24 10 13 1016.0 1015.9 0.0
07/09:00pm 20.3 17.4 12.8 62 4.2 SW 20 30 11 16 1015.8 1015.7 0.0
07/08:30pm 20.3 18.2 13.5 65 3.9 WSW 17 22 9 12 1015.4 1015.3 0.0
07/08:00pm 20.3 17.5 12.5 61 4.4 SW 19 24 10 13 1015.2 1015.1 0.0
07/07:30pm 20.5 17.6 13.0 62 4.3 SW 20 30 11 16 1014.8 1014.7 0.0
07/07:00pm 20.7 18.0 13.6 64 4.1 WSW 20 28 11 15 1014.5 1014.4 0.0
07/06:30pm 21.3 18.8 14.0 63 4.2 SW 20 28 11 15 1014.0 1013.9 0.0
07/06:00pm 21.8 19.6 14.9 65 4.1 SW 20 32 11 17 1013.5 1013.4 0.0
07/05:30pm 21.9 20.2 14.8 64 4.2 WSW 17 22 9 12 1013.0 1012.9 0.0
07/05:00pm 22.9 21.1 15.5 63 4.4 WSW 19 24 10 13 1012.8 1012.7 0.0
07/04:30pm 22.7 20.7 15.5 64 4.3 WSW 20 28 11 15 1012.9 1012.8 0.0
07/04:00pm 22.9 21.7 16.2 66 4.1 WSW 17 24 9 13 1012.8 1012.7 0.0
07/03:30pm 23.2 22.0 16.0 64 4.4 WSW 17 24 9 13 1012.7 1012.6 0.0
07/03:00pm 23.1 21.7 16.6 67 4.0 WSW 19 24 10 13 1012.6 1012.5 0.0
07/02:30pm 23.2 21.6 16.5 66 4.1 WSW 20 28 11 15 1012.4 1012.3 0.0
07/02:00pm 24.3 22.6 17.1 64 4.5 WSW 22 30 12 16 1012.1 1012.0 0.0
07/01:30pm 24.0 22.0 17.3 66 4.2 WNW 24 37 13 20 1012.0 1011.9 0.0
07/01:00pm 26.2 25.4 19.3 65 4.4 WNW 22 28 12 15 1011.9 1011.8 0.0
07/12:30pm 26.6 25.9 19.5 65 4.6 WNW 22 32 12 17 1011.8 1011.7 0.0
07/12:00pm 25.7 25.1 18.9 66 4.3 WNW 20 28 11 15 1011.7 1011.6 0.0
07/11:30am 24.8 23.9 19.0 70 3.7 WNW 22 32 12 17 1011.8 1011.7 0.0
07/11:00am 25.9 25.1 19.3 67 4.2 WNW 22 30 12 16 1011.7 1011.6 0.0
07/10:30am 25.2 24.3 19.1 69 3.9 WNW 22 32 12 17 1011.8 1011.7 0.0
07/10:00am 24.9 23.9 19.7 73 3.4 NW 24 33 13 18 1011.6 1011.5 0.0
07/09:30am 24.6 24.2 20.1 76 2.9 NW 22 30 12 16 1011.4 1011.3 0.0
07/09:00am 24.5 23.9 20.4 78 2.7 NW 24 32 13 17 1011.2 1011.1 0.0
07/08:30am 23.8 23.0 20.1 80 2.4 NW 24 32 13 17 1011.1 1011.0 0.0
07/08:00am 22.7 21.9 20.0 85 1.7 NW 24 35 13 19 1010.9 1010.8 0.0
07/07:30am 22.2 21.6 19.7 86 1.6 NNW 22 32 12 17 1010.8 1010.7 0.0
07/07:00am 21.7 22.7 21.0 96 0.5 NNW 17 24 9 13 1010.8 1010.7 0.0
07/06:30am 20.5 22.4 20.5 100 0.0 N 11 19 6 10 1010.3 1010.2 0.0
07/06:00am 19.1 20.3 19.1 100 0.0 N 11 13 6 7 1010.1 1010.0 0.0
07/05:30am 17.5 18.0 17.5 100 0.0 N 11 15 6 8 1009.6 1009.5 0.0
07/05:00am 17.2 17.2 17.2 100 0.0 N 13 19 7 10 1009.0 1008.9 0.0
07/04:30am 16.1 16.7 15.9 99 0.1 N 7 11 4 6 1009.0 1008.9 0.0
07/04:00am 15.2 15.7 15.0 99 0.1 NW 6 11 3 6 1008.7 1008.6 0.0
07/03:30am 16.7 17.6 16.5 99 0.1 N 7 11 4 6 1008.1 1008.0 0.0
07/03:00am 17.0 17.6 16.8 99 0.1 NNE 9 13 5 7 1008.2 1008.1 0.0
07/02:30am 17.1 17.4 16.9 99 0.1 NNE 11 13 6 7 1008.4 1008.3 0.0
07/02:00am 16.2 17.1 16.0 99 0.1 NNE 6 9 3 5 1008.9 1008.8 0.0
07/01:30am 12.8 12.4 12.3 97 0.3 N 6 6 3 3 1009.3 1009.2 0.0
07/01:00am 12.4 12.6 11.8 96 0.3 N 2 4 1 2 1010.0 1009.9 0.0
07/12:30am 12.3 12.0 11.5 95 0.4 N 4 6 2 3 1010.1 1010.0 0.0
07/12:00am 13.4 14.2 12.6 95 0.4 CALM 0 0 0 0 1010.4 1010.3 0.0

Other formats

Comma delimited format used in spreadsheet applications
http://www.bom.gov.au/fwo/IDW60801/IDW60801.95609.axf

JavaScript Object Notation format (JSON) in row-major order
http://www.bom.gov.au/fwo/IDW60801/IDW60801.95609.json

Data quality

Most of these data are generated automatically and are frequently updated. Quality checks on data are not normally performed. It is possible for incorrect values to appear. Refer to information at About Latest Weather Observations and please check the disclaimer before using these data.